createdAt,value
2022-10-17T00:02:25.353Z,13.80
2022-10-17T00:04:54.060Z,12.20
2022-10-17T00:07:22.552Z,13.20
2022-10-17T00:09:52.828Z,11.40
2022-10-17T00:12:21.248Z,15.20
2022-10-17T00:14:49.929Z,16.00
2022-10-17T00:17:18.360Z,14.20
2022-10-17T00:19:46.987Z,14.20
2022-10-17T00:22:15.511Z,14.60
2022-10-17T00:24:44.211Z,14.00
2022-10-17T00:27:14.009Z,4.40
2022-10-17T00:29:42.871Z,14.00
2022-10-17T00:32:11.278Z,10.60
2022-10-17T00:34:40.196Z,11.20
2022-10-17T00:37:08.875Z,13.60
2022-10-17T00:39:37.501Z,15.60
2022-10-17T00:42:06.117Z,11.80
2022-10-17T00:45:01.355Z,13.80
2022-10-17T00:47:31.037Z,13.80
2022-10-17T00:52:34.773Z,14.00
2022-10-17T00:55:12.898Z,13.00
2022-10-17T00:57:42.579Z,10.60
2022-10-17T01:00:15.693Z,12.80
2022-10-17T01:02:44.867Z,14.00
2022-10-17T01:05:14.167Z,13.80
2022-10-17T01:07:45.641Z,15.40
2022-10-17T01:10:15.329Z,14.40
2022-10-17T01:12:56.561Z,13.80
2022-10-17T01:15:39.796Z,13.20
2022-10-17T01:18:21.056Z,10.60
2022-10-17T01:21:17.897Z,14.20
2022-10-17T01:23:55.584Z,14.40
2022-10-17T01:26:29.009Z,12.80
2022-10-17T01:29:23.156Z,13.80
2022-10-17T01:32:00.641Z,14.20
2022-10-17T01:34:36.080Z,13.40
2022-10-17T01:37:15.146Z,13.00
2022-10-17T01:39:48.070Z,14.00
2022-10-17T01:42:23.490Z,13.00
2022-10-17T01:44:59.984Z,14.00
2022-10-17T01:47:33.889Z,14.40
2022-10-17T01:50:08.383Z,15.40
2022-10-17T01:52:43.405Z,11.40
2022-10-17T01:55:17.961Z,14.00
2022-10-17T01:57:51.696Z,12.40
2022-10-17T02:00:23.933Z,12.80
2022-10-17T02:02:59.393Z,14.80
2022-10-17T02:05:33.596Z,14.40
2022-10-17T02:08:02.320Z,15.80
2022-10-17T02:10:37.818Z,16.00
2022-10-17T02:13:16.677Z,14.00
2022-10-17T02:16:00.392Z,12.60
2022-10-17T02:18:54.403Z,15.40
2022-10-17T02:21:33.002Z,13.80
2022-10-17T02:24:08.879Z,13.40
2022-10-17T02:26:44.501Z,14.80
2022-10-17T02:29:19.101Z,14.00
2022-10-17T02:31:51.217Z,13.60
2022-10-17T02:34:27.588Z,14.80
2022-10-17T02:37:00.291Z,13.80
2022-10-17T02:39:31.257Z,14.40
2022-10-17T02:42:05.403Z,9.20
2022-10-17T02:44:35.325Z,15.40
2022-10-17T02:47:10.321Z,10.40
2022-10-17T02:49:45.618Z,14.60
2022-10-17T02:52:22.416Z,13.80
2022-10-17T02:54:55.966Z,16.40
2022-10-17T02:57:32.339Z,15.60
2022-10-17T03:00:04.932Z,14.00
2022-10-17T03:02:41.569Z,14.20
2022-10-17T03:05:15.172Z,14.00
2022-10-17T03:07:43.570Z,14.60
2022-10-17T03:10:12.991Z,15.20
2022-10-17T03:12:41.469Z,13.60
2022-10-17T03:15:12.808Z,15.60
2022-10-17T03:17:42.395Z,14.40
2022-10-17T03:20:13.499Z,14.60
2022-10-17T03:22:42.067Z,8.20
2022-10-17T03:25:12.020Z,13.80
2022-10-17T03:27:40.543Z,12.20
2022-10-17T03:30:11.538Z,15.20
2022-10-17T03:32:40.401Z,15.20
2022-10-17T03:35:13.983Z,15.40
2022-10-17T03:37:48.595Z,14.40
2022-10-17T03:40:18.632Z,8.80
2022-10-17T03:42:47.012Z,15.20
2022-10-17T03:45:16.251Z,14.00
2022-10-17T03:47:46.217Z,16.60
2022-10-17T03:50:15.346Z,16.00
2022-10-17T03:52:49.368Z,15.20
2022-10-17T03:55:18.611Z,15.60
2022-10-17T03:57:47.268Z,29.25
2022-10-17T04:00:18.410Z,23.50
2022-10-17T04:02:55.083Z,21.50
2022-10-17T04:05:24.818Z,37.67
2022-10-17T04:07:54.781Z,15.60
2022-10-17T04:10:32.001Z,15.20
2022-10-17T04:13:00.559Z,15.00
2022-10-17T04:15:29.384Z,13.20
2022-10-17T04:17:57.915Z,18.40
2022-10-17T04:20:26.963Z,16.40
2022-10-17T04:22:56.919Z,16.00
2022-10-17T04:25:25.750Z,22.00
2022-10-17T04:27:54.237Z,16.00
2022-10-17T04:30:23.059Z,15.20
2022-10-17T04:32:52.283Z,15.60
2022-10-17T04:35:23.670Z,14.80
2022-10-17T04:38:01.096Z,17.00
2022-10-17T04:40:29.842Z,16.80
2022-10-17T04:42:58.407Z,22.50
2022-10-17T04:45:34.715Z,22.00
2022-10-17T04:48:05.891Z,13.20
2022-10-17T04:50:34.564Z,17.00
2022-10-17T04:53:35.476Z,18.00
2022-10-17T04:56:10.380Z,15.20
2022-10-17T04:58:40.473Z,15.00
2022-10-17T05:01:11.520Z,16.60
2022-10-17T05:03:42.728Z,17.00
2022-10-17T05:06:13.346Z,8.20
2022-10-17T05:08:46.436Z,14.20
2022-10-17T05:11:20.584Z,14.20
2022-10-17T05:13:52.576Z,15.60
2022-10-17T05:16:22.537Z,15.00
2022-10-17T05:18:53.027Z,17.60
2022-10-17T05:21:24.401Z,16.20
2022-10-17T05:23:56.646Z,15.00
2022-10-17T05:26:26.687Z,17.00
2022-10-17T05:28:55.402Z,19.00
2022-10-17T05:31:26.942Z,10.20
2022-10-17T05:33:55.339Z,16.60
2022-10-17T05:36:24.580Z,18.00
2022-10-17T05:38:54.972Z,14.20
2022-10-17T05:41:24.392Z,16.40
2022-10-17T05:43:52.826Z,17.00
2022-10-17T05:46:30.804Z,17.40
2022-10-17T05:48:59.244Z,15.80
2022-10-17T05:51:28.134Z,18.00
2022-10-17T05:53:59.735Z,17.00
2022-10-17T05:56:29.934Z,18.00
2022-10-17T05:59:01.055Z,16.00
2022-10-17T06:01:50.711Z,18.00
2022-10-17T06:04:19.431Z,18.00
2022-10-17T06:06:48.209Z,5.80
2022-10-17T06:09:18.240Z,17.00
2022-10-17T06:11:50.157Z,16.00
2022-10-17T06:14:18.924Z,16.20
2022-10-17T06:16:49.730Z,17.60
2022-10-17T06:19:18.523Z,15.80
2022-10-17T06:21:48.610Z,18.00
2022-10-17T06:24:23.487Z,15.40
2022-10-17T06:26:54.360Z,16.00
2022-10-17T06:29:24.183Z,17.80
2022-10-17T06:31:54.115Z,16.80
2022-10-17T06:34:22.806Z,17.00
2022-10-17T06:36:51.901Z,17.00
2022-10-17T06:39:21.078Z,17.20
2022-10-17T06:42:06.319Z,16.80
2022-10-17T06:44:57.536Z,18.80
2022-10-17T06:47:55.835Z,17.40
2022-10-17T06:50:45.108Z,15.40
2022-10-17T06:53:25.975Z,18.00
2022-10-17T06:56:12.576Z,16.00
2022-10-17T06:59:09.899Z,18.00
2022-10-17T07:01:41.875Z,17.00
2022-10-17T07:04:14.845Z,17.60
2022-10-17T07:06:43.494Z,16.20
2022-10-17T07:09:18.155Z,15.40
2022-10-17T07:11:47.018Z,13.40
2022-10-17T07:14:20.952Z,14.00
2022-10-17T07:16:50.343Z,10.50
2022-10-17T07:19:25.595Z,15.60
2022-10-17T07:21:54.196Z,17.80
2022-10-17T07:24:23.509Z,15.75
2022-10-17T07:26:58.183Z,14.40
2022-10-17T07:29:28.814Z,15.25
2022-10-17T07:32:08.665Z,15.40
2022-10-17T07:34:37.676Z,16.00
2022-10-17T07:37:09.961Z,15.60
2022-10-17T07:39:41.147Z,15.00
2022-10-17T07:42:12.034Z,15.60
2022-10-17T07:44:42.205Z,17.20
2022-10-17T07:47:11.682Z,15.40
2022-10-17T07:49:42.741Z,15.80
2022-10-17T07:52:11.692Z,12.60
2022-10-17T07:54:40.559Z,16.00
2022-10-17T07:57:09.259Z,12.25
2022-10-17T07:59:39.465Z,15.20
2022-10-17T08:02:15.328Z,16.60
2022-10-17T08:04:44.108Z,13.60
2022-10-17T08:07:21.739Z,16.80
2022-10-17T08:09:52.093Z,13.40
2022-10-17T08:12:20.618Z,15.80
2022-10-17T08:14:50.746Z,16.40
2022-10-17T08:17:20.643Z,14.80
2022-10-17T08:19:49.653Z,13.20
2022-10-17T08:22:18.067Z,15.00
2022-10-17T08:24:47.314Z,15.00
2022-10-17T08:27:21.396Z,14.40
2022-10-17T08:29:52.871Z,14.00
2022-10-17T08:32:25.055Z,15.00
2022-10-17T08:34:54.108Z,14.40
2022-10-17T08:37:22.504Z,15.20
2022-10-17T08:39:51.135Z,14.80
2022-10-17T08:42:35.683Z,13.80
2022-10-17T08:45:14.707Z,13.20
2022-10-17T08:47:48.543Z,13.20
2022-10-17T08:50:32.164Z,14.00
2022-10-17T08:53:07.193Z,13.20
2022-10-17T08:55:42.799Z,13.20
2022-10-17T08:58:15.892Z,14.00
2022-10-17T09:00:50.552Z,15.00
2022-10-17T09:03:33.919Z,13.00
2022-10-17T09:06:16.202Z,14.00
2022-10-17T09:08:54.344Z,15.00
2022-10-17T09:11:41.957Z,14.60
2022-10-17T09:14:29.549Z,14.80
2022-10-17T09:17:12.422Z,14.40
2022-10-17T09:19:50.249Z,16.80
2022-10-17T09:22:24.460Z,16.20
2022-10-17T09:24:58.471Z,14.00
2022-10-17T09:27:34.825Z,16.00
2022-10-17T09:30:40.452Z,14.80
2022-10-17T09:33:23.335Z,13.60
2022-10-17T09:36:05.519Z,13.80
2022-10-17T09:38:41.597Z,16.75
2022-10-17T09:44:26.246Z,11.80
2022-10-17T09:47:16.597Z,12.80
2022-10-17T09:49:47.271Z,7.20
2022-10-17T09:52:19.969Z,15.50
2022-10-17T09:54:51.589Z,13.80
2022-10-17T09:57:21.825Z,16.40
2022-10-17T09:59:59.411Z,14.60
2022-10-17T10:02:30.026Z,13.20
2022-10-17T10:05:04.619Z,14.00
2022-10-17T10:07:38.700Z,13.00
2022-10-17T10:10:23.938Z,14.80
2022-10-17T10:13:05.785Z,9.00
2022-10-17T10:15:37.897Z,13.40
2022-10-17T10:21:09.080Z,13.60
2022-10-17T10:23:41.163Z,14.20
2022-10-17T10:26:23.552Z,11.80
2022-10-17T10:29:00.075Z,7.60
2022-10-17T10:31:32.874Z,13.00
2022-10-17T10:34:04.185Z,13.60
2022-10-17T10:36:56.389Z,13.20
2022-10-17T10:39:35.925Z,10.60
2022-10-17T10:42:08.697Z,13.20
2022-10-17T10:44:42.108Z,13.60
2022-10-17T10:47:21.791Z,13.40
2022-10-17T10:49:53.864Z,13.20
2022-10-17T10:52:39.105Z,11.60
2022-10-17T10:55:19.387Z,14.20
2022-10-17T10:57:50.378Z,12.40
2022-10-17T11:00:24.319Z,13.20
2022-10-17T11:03:01.918Z,14.40
2022-10-17T11:05:46.727Z,12.00
2022-10-17T11:08:23.976Z,12.20
2022-10-17T11:11:09.148Z,11.60
2022-10-17T11:13:44.471Z,12.60
2022-10-17T11:16:29.138Z,13.80
2022-10-17T11:19:05.177Z,14.20
2022-10-17T11:24:22.860Z,10.40
2022-10-17T11:26:57.381Z,13.40
2022-10-17T11:29:29.812Z,13.80
2022-10-17T11:32:02.396Z,13.00
2022-10-17T11:34:36.638Z,11.80
2022-10-17T11:37:10.925Z,13.20
2022-10-17T11:39:48.639Z,13.00
2022-10-17T11:42:24.698Z,15.80
2022-10-17T11:45:00.458Z,12.60
2022-10-17T11:47:35.823Z,12.60
2022-10-17T11:53:02.802Z,13.40
2022-10-17T11:55:34.327Z,11.20
2022-10-17T11:58:24.574Z,12.00
2022-10-17T12:01:01.733Z,12.40
2022-10-17T12:03:41.318Z,13.00
2022-10-17T12:06:17.649Z,13.60
2022-10-17T12:08:55.086Z,12.00
2022-10-17T12:11:35.814Z,11.80
2022-10-17T12:14:37.150Z,11.40
2022-10-17T12:17:21.929Z,10.60
2022-10-17T12:19:50.444Z,11.00
2022-10-17T12:22:22.648Z,13.00
2022-10-17T12:24:57.566Z,13.40
2022-10-17T12:27:39.631Z,13.80
2022-10-17T12:30:19.185Z,13.40
2022-10-17T12:33:07.999Z,12.80
2022-10-17T12:35:38.557Z,12.00
2022-10-17T12:38:26.278Z,12.80
2022-10-17T12:40:57.788Z,13.20
2022-10-17T12:43:53.951Z,13.40
2022-10-17T12:46:56.654Z,13.20
2022-10-17T12:49:51.191Z,12.00
2022-10-17T12:52:26.948Z,12.00
2022-10-17T12:55:10.827Z,11.40
2022-10-17T12:57:49.763Z,9.60
2022-10-17T13:00:24.155Z,12.60
2022-10-17T13:02:57.202Z,11.60
2022-10-17T13:05:30.523Z,11.00
2022-10-17T13:08:02.115Z,12.60
2022-10-17T13:10:35.096Z,11.00
2022-10-17T13:13:14.039Z,12.00
2022-10-17T13:15:47.650Z,11.60
2022-10-17T13:18:22.803Z,11.60
2022-10-17T13:20:59.881Z,12.20
2022-10-17T13:23:33.106Z,11.00
2022-10-17T13:26:15.064Z,10.60
2022-10-17T13:28:44.489Z,9.40
2022-10-17T13:31:30.025Z,12.00
2022-10-17T13:34:01.832Z,8.40
2022-10-17T13:36:32.115Z,11.20
2022-10-17T13:39:07.640Z,11.20
2022-10-17T13:41:38.374Z,11.40
2022-10-17T13:44:14.399Z,15.00
2022-10-17T13:46:44.173Z,10.20
2022-10-17T13:49:23.191Z,12.20
2022-10-17T13:51:56.327Z,11.00
2022-10-17T13:54:36.386Z,12.00
2022-10-17T13:57:06.457Z,12.00
2022-10-17T13:59:40.059Z,11.20
2022-10-17T14:02:16.573Z,11.00
2022-10-17T14:05:15.606Z,11.80
2022-10-17T14:08:09.386Z,10.80
2022-10-17T14:10:34.272Z,10.40
2022-10-17T14:13:04.762Z,10.00
2022-10-17T14:15:36.222Z,10.80
2022-10-17T14:18:09.519Z,11.20
2022-10-17T14:21:19.828Z,10.00
2022-10-17T14:23:37.856Z,12.40
2022-10-17T14:26:09.616Z,10.00
2022-10-17T14:28:39.892Z,10.40
2022-10-17T14:31:25.700Z,11.00
2022-10-17T14:33:55.927Z,11.00
2022-10-17T14:36:40.000Z,11.80
2022-10-17T14:39:19.650Z,11.60
2022-10-17T14:41:49.287Z,5.00
2022-10-17T14:44:24.047Z,11.00
2022-10-17T14:46:56.773Z,12.40
2022-10-17T14:49:32.485Z,10.00
2022-10-17T14:52:31.672Z,15.25
2022-10-17T14:55:13.379Z,11.20
2022-10-17T14:57:46.905Z,10.20
2022-10-17T15:00:17.114Z,11.20
2022-10-17T15:02:46.465Z,13.40
2022-10-17T15:05:16.395Z,14.40
2022-10-17T15:07:46.247Z,13.60
2022-10-17T15:10:26.413Z,15.40
2022-10-17T15:12:59.936Z,13.20
2022-10-17T15:15:33.942Z,13.60
2022-10-17T15:18:02.856Z,16.80
2022-10-17T15:20:31.885Z,16.40
2022-10-17T15:23:03.224Z,18.60
2022-10-17T15:25:34.293Z,16.40
2022-10-17T15:28:02.734Z,14.60
2022-10-17T15:30:33.654Z,16.20
2022-10-17T15:33:02.952Z,15.40
2022-10-17T15:35:32.156Z,16.40
2022-10-17T15:38:02.401Z,18.00
2022-10-17T15:40:31.298Z,20.00
2022-10-17T15:42:59.686Z,18.00
2022-10-17T15:45:28.516Z,18.50
2022-10-17T15:48:01.738Z,20.00
2022-10-17T15:50:30.717Z,19.00
2022-10-17T15:53:00.009Z,18.75
2022-10-17T15:55:31.950Z,20.25
2022-10-17T15:58:00.345Z,20.50
2022-10-17T16:00:29.294Z,22.50
2022-10-17T16:02:57.941Z,21.50
2022-10-17T16:05:28.513Z,21.00
2022-10-17T16:07:58.017Z,22.75
2022-10-17T16:10:27.192Z,23.00
2022-10-17T16:12:57.260Z,21.50
2022-10-17T16:15:28.021Z,21.50
2022-10-17T16:18:00.566Z,21.00
2022-10-17T16:20:32.099Z,24.00
2022-10-17T16:23:03.047Z,22.50
2022-10-17T16:25:33.168Z,22.00
2022-10-17T16:28:04.212Z,22.00
2022-10-17T16:30:33.988Z,22.25
2022-10-17T16:33:02.368Z,23.25
2022-10-17T16:35:36.497Z,24.75
2022-10-17T16:38:07.268Z,23.00
2022-10-17T16:40:40.032Z,23.75
2022-10-17T16:43:12.367Z,24.75
2022-10-17T16:45:41.368Z,23.00
2022-10-17T16:48:10.825Z,26.00
2022-10-17T16:50:41.052Z,26.00
2022-10-17T16:53:09.885Z,21.75
2022-10-17T16:55:39.566Z,23.75
2022-10-17T16:58:09.312Z,22.75
2022-10-17T17:00:40.071Z,22.75
2022-10-17T17:03:08.558Z,23.75
2022-10-17T17:05:37.170Z,25.25
2022-10-17T17:08:09.086Z,21.75
2022-10-17T17:10:45.750Z,20.25
2022-10-17T17:13:15.758Z,20.00
2022-10-17T17:18:15.450Z,25.25
2022-10-17T17:20:44.108Z,25.50
2022-10-17T17:23:15.702Z,21.00
2022-10-17T17:25:45.304Z,22.50
2022-10-17T17:28:15.136Z,23.00
2022-10-17T17:30:44.009Z,17.50
2022-10-17T17:33:12.412Z,21.00
2022-10-17T17:35:41.216Z,22.25
2022-10-17T17:38:09.730Z,22.50
2022-10-17T17:40:38.494Z,20.00
2022-10-17T17:43:06.869Z,19.75
2022-10-17T17:45:37.289Z,20.00
2022-10-17T17:48:05.869Z,21.50
2022-10-17T17:50:37.702Z,21.25
2022-10-17T17:53:07.535Z,21.50
2022-10-17T17:55:37.189Z,21.25
2022-10-17T17:58:06.299Z,25.50
2022-10-17T18:00:37.383Z,22.00
2022-10-17T18:03:05.886Z,21.00
2022-10-17T18:05:35.003Z,19.25
2022-10-17T18:08:05.187Z,20.25
2022-10-17T18:10:33.838Z,20.25
2022-10-17T18:13:02.290Z,21.50
2022-10-17T18:15:31.273Z,22.00
2022-10-17T18:18:01.228Z,22.75
2022-10-17T18:20:30.045Z,22.00
2022-10-17T18:23:00.614Z,21.00
2022-10-17T18:25:32.223Z,22.75
2022-10-17T18:28:00.550Z,22.00
2022-10-17T18:30:32.290Z,22.00
2022-10-17T18:33:04.348Z,23.00
2022-10-17T18:35:33.267Z,23.00
2022-10-17T18:38:01.776Z,22.50
2022-10-17T18:40:30.551Z,22.00
2022-10-17T18:42:59.382Z,22.00
2022-10-17T18:45:28.389Z,22.75
2022-10-17T18:47:57.014Z,22.50
2022-10-17T18:50:27.470Z,22.75
2022-10-17T18:52:55.897Z,23.25
2022-10-17T18:55:25.081Z,22.75
2022-10-17T18:57:53.791Z,23.25
2022-10-17T19:00:22.751Z,23.00
2022-10-17T19:02:51.317Z,22.75
2022-10-17T19:05:19.909Z,20.00
2022-10-17T19:07:50.326Z,22.75
2022-10-17T19:10:19.383Z,23.25
2022-10-17T19:12:47.888Z,23.00
2022-10-17T19:15:16.792Z,22.25
2022-10-17T19:17:45.321Z,22.75
2022-10-17T19:20:14.040Z,25.75
2022-10-17T19:22:43.078Z,23.50
2022-10-17T19:25:14.043Z,23.25
2022-10-17T19:27:42.600Z,22.75
2022-10-17T19:30:12.680Z,23.75
2022-10-17T19:32:41.082Z,24.00
2022-10-17T19:35:11.738Z,22.00
2022-10-17T19:37:40.381Z,23.50
2022-10-17T19:40:11.251Z,23.00
2022-10-17T19:42:41.736Z,24.50
2022-10-17T19:45:11.264Z,24.50
2022-10-17T19:47:39.841Z,24.00
2022-10-17T19:50:09.277Z,25.00
2022-10-17T19:52:38.251Z,25.00
2022-10-17T19:55:07.806Z,24.75
2022-10-17T19:57:36.606Z,24.00
2022-10-17T20:00:08.027Z,24.00
2022-10-17T20:02:39.748Z,25.00
2022-10-17T20:05:18.555Z,23.50
2022-10-17T20:07:47.847Z,24.25
2022-10-17T20:10:18.450Z,24.00
2022-10-17T20:12:46.918Z,24.00
2022-10-17T20:15:17.044Z,24.50
2022-10-17T20:17:45.456Z,24.00
2022-10-17T20:20:14.371Z,23.50
2022-10-17T20:22:42.756Z,22.00
2022-10-17T20:25:11.630Z,22.75
2022-10-17T20:27:39.976Z,25.25
2022-10-17T20:30:09.521Z,24.00
2022-10-17T20:32:39.758Z,24.00
2022-10-17T20:35:09.393Z,24.50
2022-10-17T20:37:41.676Z,24.00
2022-10-17T20:43:00.655Z,24.00
2022-10-17T20:45:43.746Z,24.50
2022-10-17T20:48:19.257Z,24.25
2022-10-17T20:50:47.888Z,24.25
2022-10-17T20:53:36.987Z,23.00
2022-10-17T20:56:08.605Z,25.25
2022-10-17T20:58:37.201Z,23.25
2022-10-17T21:01:07.639Z,25.75
2022-10-17T21:03:39.937Z,24.00
2022-10-17T21:06:11.813Z,24.00
2022-10-17T21:08:41.299Z,23.75
2022-10-17T21:11:12.599Z,23.50
2022-10-17T21:13:41.719Z,22.50
2022-10-17T21:16:12.061Z,22.75
2022-10-17T21:18:42.239Z,23.00
2022-10-17T21:21:13.914Z,22.75
2022-10-17T21:23:44.211Z,21.50
2022-10-17T21:26:13.781Z,21.25
2022-10-17T21:28:43.623Z,21.25
2022-10-17T21:31:15.422Z,19.25
2022-10-17T21:33:47.237Z,23.00
2022-10-17T21:36:17.372Z,23.00
2022-10-17T21:38:47.262Z,22.25
2022-10-17T21:41:17.863Z,22.75
2022-10-17T21:43:46.772Z,21.25
2022-10-17T21:46:17.340Z,21.00
2022-10-17T21:48:52.252Z,22.50
2022-10-17T21:51:26.537Z,21.00
2022-10-17T21:53:57.587Z,23.00
2022-10-17T21:56:28.711Z,19.50
2022-10-17T21:58:57.554Z,19.75
2022-10-17T22:01:28.120Z,21.50
2022-10-17T22:04:01.966Z,21.50
2022-10-17T22:06:39.619Z,24.25
2022-10-17T22:09:16.535Z,15.25
2022-10-17T22:11:46.986Z,21.00
2022-10-17T22:14:22.839Z,21.75
2022-10-17T22:16:51.797Z,21.25
2022-10-17T22:19:24.416Z,20.75
2022-10-17T22:21:53.516Z,23.00
2022-10-17T22:24:23.305Z,21.25
2022-10-17T22:26:52.264Z,20.75
2022-10-17T22:29:21.231Z,21.00
2022-10-17T22:31:49.900Z,20.50
2022-10-17T22:34:19.271Z,22.50
2022-10-17T22:36:49.228Z,21.25
2022-10-17T22:39:17.752Z,20.75
2022-10-17T22:41:46.432Z,19.75
2022-10-17T22:44:14.855Z,21.25
2022-10-17T22:46:43.613Z,21.25
2022-10-17T22:49:12.599Z,19.75
2022-10-17T22:51:41.379Z,21.00
2022-10-17T22:54:11.113Z,19.75
2022-10-17T22:56:39.805Z,21.25
2022-10-17T22:59:08.218Z,21.25
2022-10-17T23:01:36.894Z,19.00
2022-10-17T23:04:05.448Z,19.25
2022-10-17T23:06:34.095Z,22.50
2022-10-17T23:09:03.252Z,19.25
2022-10-17T23:11:33.264Z,22.00
2022-10-17T23:14:01.625Z,21.50
2022-10-17T23:16:30.495Z,23.00
2022-10-17T23:18:59.166Z,23.00
2022-10-17T23:21:27.755Z,21.75
2022-10-17T23:23:56.235Z,18.75
2022-10-17T23:26:24.809Z,20.25
2022-10-17T23:28:56.205Z,21.50
2022-10-17T23:31:24.826Z,21.50
2022-10-17T23:33:53.235Z,20.50
2022-10-17T23:36:22.500Z,21.75
2022-10-17T23:38:53.720Z,21.75
2022-10-17T23:41:25.014Z,18.25
2022-10-17T23:43:53.448Z,21.75
2022-10-17T23:46:23.655Z,21.75
2022-10-17T23:48:52.064Z,21.25
2022-10-17T23:51:20.568Z,21.50
2022-10-17T23:53:48.996Z,21.50
2022-10-17T23:56:17.847Z,20.50
2022-10-17T23:58:46.164Z,22.50
